Time;durP1;ratioP1;P1;durP2;ratioP2;P2;SDS_P1;SDS_P2;PMS_P1;PMS_P2;Temp;Humidity;BMP_temperature;BMP_pressure;BME280_temperature;BME280_humidity;BME280_pressure;Samples;Min_cycle;Max_cycle;Signal;HPM_P1;HPM_P2
2022/05/11 00:01:38;;;;;;;8.97;8.17;;;;;;;13.58;100.00;99586.63;4805991;29;20208;-76
2022/05/11 00:04:07;;;;;;;8.23;7.63;;;;;;;13.58;100.00;99600.09;4822308;29;20205;-75
2022/05/11 00:06:34;;;;;;;8.37;7.63;;;;;;;13.56;100.00;99588.78;4806416;29;20631;-76
2022/05/11 00:09:01;;;;;;;8.40;7.70;;;;;;;13.54;100.00;99585.50;4822551;29;20239;-76
2022/05/11 00:11:28;;;;;;;8.60;8.00;;;;;;;13.47;100.00;99582.13;4822478;29;20229;-76
2022/05/11 00:13:56;;;;;;;8.43;7.83;;;;;;;13.49;100.00;99579.19;4822432;29;20204;-76
2022/05/11 00:16:25;;;;;;;8.83;8.03;;;;;;;13.45;100.00;99580.72;4822315;29;20209;-75
2022/05/11 00:18:52;;;;;;;8.30;7.50;;;;;;;13.44;100.00;99576.38;4822446;29;20203;-77
2022/05/11 00:21:19;;;;;;;8.37;7.67;;;;;;;13.40;100.00;99577.94;4822455;29;20218;-76
2022/05/11 00:23:46;;;;;;;8.97;8.27;;;;;;;13.39;100.00;99587.88;4822637;29;20671;-76
2022/05/11 00:26:12;;;;;;;8.43;7.63;;;;;;;13.35;100.00;99583.19;4806343;29;20249;-76
2022/05/11 00:28:39;;;;;;;8.30;7.67;;;;;;;13.35;100.00;99575.13;4822353;29;20240;-76
2022/05/11 00:31:06;;;;;;;9.13;8.33;;;;;;;13.30;100.00;99583.13;4822245;29;20216;-77
2022/05/11 00:33:33;;;;;;;9.07;8.13;;;;;;;13.28;100.00;99569.09;4822266;29;20192;-75
2022/05/11 00:35:59;;;;;;;8.80;8.07;;;;;;;13.21;100.00;99567.34;4822171;29;20686;-75
2022/05/11 00:38:28;;;;;;;8.77;7.87;;;;;;;13.19;100.00;99574.03;4822086;29;20272;-76
2022/05/11 00:40:57;;;;;;;9.17;8.30;;;;;;;13.10;100.00;99568.16;4821924;29;20214;-75
2022/05/11 00:43:32;;;;;;;8.77;8.03;;;;;;;13.09;100.00;99573.78;4821873;29;20224;-75
2022/05/11 00:46:19;;;;;;;8.80;8.00;;;;;;;13.03;100.00;99575.53;4821608;29;20217;-75
2022/05/11 00:51:39;;;;;;;8.60;7.83;;;;;;;12.94;100.00;99568.06;4821864;29;20245;-75
2022/05/11 00:54:07;;;;;;;9.17;8.23;;;;;;;12.93;100.00;99563.72;4805927;29;20212;-74
2022/05/11 00:56:36;;;;;;;8.90;8.00;;;;;;;12.86;100.00;99563.88;4805521;29;20197;-75
2022/05/11 00:59:12;;;;;;;8.77;8.03;;;;;;;12.83;100.00;99560.84;4821956;29;20282;-76
2022/05/11 01:01:39;;;;;;;8.80;8.10;;;;;;;12.77;100.00;99566.13;4805204;29;20204;-75
2022/05/11 01:04:11;;;;;;;8.57;7.90;;;;;;;12.75;100.00;99570.06;4822025;29;20190;-76
2022/05/11 01:06:39;;;;;;;9.37;8.57;;;;;;;12.69;100.00;99563.75;4805912;29;20665;-75
2022/05/11 01:09:07;;;;;;;8.37;7.73;;;;;;;12.68;100.00;99562.16;4805577;29;20294;-76
2022/05/11 01:11:40;;;;;;;8.87;8.17;;;;;;;12.61;100.00;99555.25;4821913;29;20302;-76
2022/05/11 01:14:10;;;;;;;8.97;8.27;;;;;;;12.56;100.00;99558.63;4806195;29;20290;-76
2022/05/11 01:16:38;;;;;;;9.83;8.17;;;;;;;12.49;100.00;99554.44;4805389;29;20346;-76
2022/05/11 01:19:05;;;;;;;9.43;8.63;;;;;;;12.43;100.00;99553.50;4821556;29;20651;-75
2022/05/11 01:21:40;;;;;;;9.30;8.50;;;;;;;12.39;100.00;99554.19;4804752;29;20184;-75
2022/05/11 01:24:25;;;;;;;9.87;8.97;;;;;;;12.36;100.00;99553.59;4805099;29;20262;-76
2022/05/11 01:26:52;;;;;;;9.27;8.37;;;;;;;12.36;100.00;99556.28;4805411;29;20188;-74
2022/05/11 01:29:19;;;;;;;9.83;8.93;;;;;;;12.33;100.00;99562.13;4821593;29;20290;-75
2022/05/11 01:31:45;;;;;;;9.70;8.80;;;;;;;12.25;100.00;99558.97;4821567;29;20216;-76
2022/05/11 01:34:14;;;;;;;9.20;8.50;;;;;;;12.19;100.00;99555.34;4821835;29;20220;-75
2022/05/11 01:36:41;;;;;;;9.17;8.47;;;;;;;12.13;100.00;99556.25;4804926;29;20223;-76
2022/05/11 01:39:09;;;;;;;9.07;8.37;;;;;;;12.06;100.00;99560.94;4805179;29;20199;-75
2022/05/11 01:41:42;;;;;;;9.00;8.20;;;;;;;12.01;100.00;99560.78;4821503;29;20277;-75
2022/05/11 01:44:14;;;;;;;8.77;8.03;;;;;;;11.94;100.00;99562.78;4821530;29;20254;-75
2022/05/11 01:46:45;;;;;;;9.57;8.63;;;;;;;11.82;100.00;99564.59;4804902;29;20649;-77
2022/05/11 01:49:12;;;;;;;9.23;8.47;;;;;;;11.76;100.00;99563.63;4821280;29;20242;-75
2022/05/11 01:51:39;;;;;;;8.93;8.27;;;;;;;11.73;100.00;99568.66;4821134;29;20274;-75
2022/05/11 01:54:06;;;;;;;8.93;8.13;;;;;;;11.69;100.00;99554.03;4821589;29;20273;-76
2022/05/11 01:56:33;;;;;;;9.67;8.80;;;;;;;11.65;100.00;99559.03;4821172;29;20215;-75
2022/05/11 01:59:00;;;;;;;9.17;8.40;;;;;;;11.65;100.00;99558.22;4820601;29;20245;-75
2022/05/11 02:01:29;;;;;;;9.00;8.30;;;;;;;11.69;100.00;99562.06;4820917;29;20586;-76
2022/05/11 02:03:56;;;;;;;9.07;8.33;;;;;;;11.65;100.00;99559.03;4805044;29;20195;-76
2022/05/11 02:09:08;;;;;;;9.80;9.00;;;;;;;11.55;100.00;99561.44;4821477;29;20250;-74
2022/05/11 02:11:36;;;;;;;10.13;9.20;;;;;;;11.50;100.00;99569.34;4820880;29;20340;-75
2022/05/11 02:14:02;;;;;;;10.13;9.00;;;;;;;11.45;100.00;99562.00;4821490;29;20230;-76
2022/05/11 02:16:30;;;;;;;9.63;8.73;;;;;;;11.45;100.00;99569.22;4820751;29;20656;-75
2022/05/11 02:18:57;;;;;;;9.87;8.90;;;;;;;11.45;100.00;99561.16;4821151;29;20202;-75
2022/05/11 02:21:24;;;;;;;9.63;8.97;;;;;;;11.43;100.00;99561.38;4820811;29;20293;-75
2022/05/11 02:23:52;;;;;;;10.20;9.27;;;;;;;11.41;100.00;99565.34;4820815;29;20227;-76
2022/05/11 02:26:19;;;;;;;10.27;9.30;;;;;;;11.36;100.00;99563.34;4820762;29;20571;-75
2022/05/11 02:28:50;;;;;;;10.30;9.50;;;;;;;11.34;100.00;99565.44;4820399;29;20194;-76
2022/05/11 02:31:17;;;;;;;10.57;9.60;;;;;;;11.31;100.00;99565.88;4820931;29;20186;-75
2022/05/11 02:33:44;;;;;;;9.93;9.03;;;;;;;11.30;100.00;99563.41;4804776;29;20191;-75
2022/05/11 02:36:12;;;;;;;9.33;8.53;;;;;;;11.34;100.00;99568.09;4820819;29;20190;-76
2022/05/11 02:38:41;;;;;;;9.17;8.37;;;;;;;11.31;100.00;99570.44;4820590;29;20209;-75
2022/05/11 02:41:08;;;;;;;9.83;8.87;;;;;;;11.33;100.00;99566.50;4804514;29;20200;-76
2022/05/11 02:43:35;;;;;;;9.43;8.63;;;;;;;11.27;100.00;99566.56;4820601;29;20243;-75
2022/05/11 02:46:01;;;;;;;9.03;8.33;;;;;;;11.23;100.00;99562.69;4820553;29;20194;-75
2022/05/11 02:48:31;;;;;;;9.40;8.60;;;;;;;11.21;100.00;99562.91;4804175;29;20289;-75
2022/05/11 02:50:58;;;;;;;9.10;8.37;;;;;;;11.17;100.00;99561.72;4820494;29;20272;-75
2022/05/11 02:53:27;;;;;;;9.03;8.23;;;;;;;11.16;100.00;99551.22;4820791;29;20182;-75
2022/05/11 02:55:55;;;;;;;9.07;8.27;;;;;;;11.12;100.00;99555.41;4820705;29;20225;-75
2022/05/11 02:58:24;;;;;;;9.37;8.47;;;;;;;11.07;100.00;99553.38;4820236;29;20289;-76
2022/05/11 03:00:51;;;;;;;9.60;8.70;;;;;;;11.06;100.00;99559.00;4820002;29;20229;-76
2022/05/11 03:03:19;;;;;;;9.67;8.87;;;;;;;11.03;100.00;99552.22;4819935;29;20250;-75
2022/05/11 03:05:47;;;;;;;9.13;8.23;;;;;;;10.99;100.00;99551.84;4804386;29;20190;-75
2022/05/11 03:08:14;;;;;;;9.23;8.43;;;;;;;10.98;100.00;99560.91;4820081;29;20214;-75
2022/05/11 03:10:41;;;;;;;9.43;8.73;;;;;;;10.98;100.00;99558.25;4821654;29;20360;-75
2022/05/11 03:13:08;;;;;;;8.50;7.80;;;;;;;10.96;100.00;99559.53;4807263;29;20221;-75
2022/05/11 03:15:35;;;;;;;9.30;8.40;;;;;;;10.92;100.00;99559.13;4807489;29;20265;-76
2022/05/11 03:18:02;;;;;;;8.47;7.77;;;;;;;10.93;100.00;99563.44;4823611;29;20267;-75
2022/05/11 03:20:29;;;;;;;9.37;8.50;;;;;;;10.96;100.00;99557.63;4823315;29;20226;-76
2022/05/11 03:22:56;;;;;;;8.60;7.90;;;;;;;10.98;100.00;99563.59;4823480;29;20257;-75
2022/05/11 03:25:23;;;;;;;8.33;7.73;;;;;;;11.03;100.00;99555.72;4823917;29;20217;-76
2022/05/11 03:27:51;;;;;;;8.97;8.13;;;;;;;11.03;100.00;99560.25;4807654;29;20217;-75
2022/05/11 03:30:17;;;;;;;9.23;8.33;;;;;;;11.07;100.00;99561.44;4823448;29;20248;-74
2022/05/11 03:35:30;;;;;;;8.27;7.57;;;;;;;11.13;100.00;99557.03;4823225;29;20210;-75
2022/05/11 03:37:56;;;;;;;8.80;8.00;;;;;;;11.18;100.00;99557.19;4822935;29;20228;-75
2022/05/11 03:40:23;;;;;;;8.93;8.13;;;;;;;11.24;100.00;99561.66;4822814;29;20712;-76
2022/05/11 03:42:50;;;;;;;8.37;7.77;;;;;;;11.29;100.00;99565.28;4823352;29;20276;-77
2022/05/11 03:45:20;;;;;;;8.73;8.07;;;;;;;11.33;100.00;99563.81;4823498;29;20201;-76
2022/05/11 03:47:47;;;;;;;9.17;8.37;;;;;;;11.40;100.00;99566.38;4823355;29;20214;-75
2022/05/11 03:50:17;;;;;;;8.73;7.93;;;;;;;11.51;100.00;99559.44;4822861;29;20216;-76
2022/05/11 03:52:43;;;;;;;9.27;8.47;;;;;;;11.77;100.00;99559.09;4823261;29;20668;-75
2022/05/11 03:55:11;;;;;;;8.83;8.00;;;;;;;12.22;100.00;99581.75;4823119;29;20234;-76
2022/05/11 03:57:38;;;;;;;8.23;7.47;;;;;;;12.49;100.00;99565.19;4822286;29;20224;-75
2022/05/11 04:00:09;;;;;;;9.00;8.23;;;;;;;13.07;100.00;99659.25;4822416;29;20195;-76
2022/05/11 04:02:39;;;;;;;8.47;7.70;;;;;;;13.94;100.00;99682.41;4822073;29;20189;-75
2022/05/11 04:05:07;;;;;;;7.77;7.17;;;;;;;14.06;100.00;99564.63;4822695;29;20259;-76
2022/05/11 04:07:35;;;;;;;8.30;7.50;;;;;;;13.79;100.00;99573.56;4822308;29;20196;-74
2022/05/11 04:10:02;;;;;;;8.27;7.50;;;;;;;13.61;100.00;99570.03;4822450;29;20276;-75
2022/05/11 04:12:30;;;;;;;8.63;7.67;;;;;;;13.45;100.00;99573.47;4819974;29;20191;-76
2022/05/11 04:14:57;;;;;;;7.47;6.97;;;;;;;13.33;100.00;99571.88;4821920;29;20204;-75
2022/05/11 04:17:24;;;;;;;8.03;7.43;;;;;;;13.27;100.00;99570.13;4822520;29;20213;-75
2022/05/11 04:19:51;;;;;;;7.40;6.73;;;;;;;13.32;100.00;99576.44;4822456;29;20229;-75
2022/05/11 04:22:18;;;;;;;31.33;23.93;;;;;;;13.37;100.00;99571.16;4821777;29;20321;-75
2022/05/11 04:24:45;;;;;;;18.47;16.77;;;;;;;13.47;100.00;99575.94;4822482;29;20718;-74
2022/05/11 04:27:13;;;;;;;11.33;10.20;;;;;;;13.61;100.00;99575.41;4821313;29;20226;-74
2022/05/11 04:29:40;;;;;;;8.70;7.93;;;;;;;13.73;100.00;99582.59;4821292;29;20296;-75
2022/05/11 04:32:08;;;;;;;8.13;7.33;;;;;;;13.84;100.00;99579.88;4821928;29;20223;-75
2022/05/11 04:34:35;;;;;;;7.10;6.50;;;;;;;13.94;100.00;99569.28;4822145;29;20210;-75
2022/05/11 04:37:01;;;;;;;7.13;6.53;;;;;;;14.09;100.00;99572.22;4822339;29;20237;-76
2022/05/11 04:39:28;;;;;;;7.60;7.00;;;;;;;14.27;100.00;99583.84;4822351;29;20291;-75
2022/05/11 04:41:55;;;;;;;7.40;6.77;;;;;;;14.42;100.00;99586.78;4822317;29;20237;-75
2022/05/11 04:44:22;;;;;;;8.20;6.90;;;;;;;14.54;100.00;99582.97;4822233;29;20627;-76
2022/05/11 04:46:49;;;;;;;7.83;6.80;;;;;;;14.72;100.00;99583.75;4821968;29;20259;-77
2022/05/11 04:49:19;;;;;;;7.00;6.40;;;;;;;14.89;100.00;99582.66;4821450;29;20203;-76
2022/05/11 04:51:47;;;;;;;8.30;6.70;;;;;;;15.06;100.00;99581.81;4804341;29;20217;-76
2022/05/11 04:54:14;;;;;;;6.87;6.27;;;;;;;15.21;100.00;99587.41;4820402;29;20201;-82
2022/05/11 04:56:41;;;;;;;6.90;6.30;;;;;;;15.35;100.00;99591.38;4805968;29;20198;-75
2022/05/11 04:59:08;;;;;;;6.57;6.07;;;;;;;15.51;100.00;99589.69;4821967;29;20542;-75
2022/05/11 05:01:35;;;;;;;6.80;6.20;;;;;;;15.64;100.00;99591.97;4821051;29;20223;-76
2022/05/11 05:04:03;;;;;;;7.20;6.67;;;;;;;15.73;100.00;99585.88;4814503;29;20212;-75
2022/05/11 05:06:33;;;;;;;6.07;5.53;;;;;;;15.91;100.00;99595.50;4821468;29;20281;-75
2022/05/11 05:09:01;;;;;;;6.60;6.00;;;;;;;16.06;100.00;99592.97;4821808;29;20711;-76
2022/05/11 05:11:29;;;;;;;6.50;6.00;;;;;;;16.21;100.00;99598.53;4821452;29;20572;-76
2022/05/11 05:13:56;;;;;;;6.57;6.07;;;;;;;16.38;100.00;99594.88;4821653;29;20228;-75
2022/05/11 05:16:23;;;;;;;7.00;6.30;;;;;;;16.53;100.00;99590.41;4821193;29;20308;-76
2022/05/11 05:18:50;;;;;;;5.77;5.33;;;;;;;16.63;100.00;99590.50;4821503;29;20584;-76
2022/05/11 05:21:17;;;;;;;6.57;6.00;;;;;;;16.76;100.00;99594.63;4805263;29;20255;-76
2022/05/11 05:23:49;;;;;;;6.63;5.57;;;;;;;16.92;100.00;99588.25;4821417;29;20234;-75
2022/05/11 05:26:16;;;;;;;6.33;5.77;;;;;;;17.10;100.00;99597.81;4821017;29;20475;-75
2022/05/11 05:31:30;;;;;;;7.10;5.70;;;;;;;17.39;100.00;99596.34;4820962;29;20233;-76
2022/05/11 05:34:00;;;;;;;6.07;5.57;;;;;;;17.57;100.00;99590.44;4820503;29;20201;-76
2022/05/11 05:36:28;;;;;;;6.33;5.80;;;;;;;17.73;100.00;99599.44;4821387;29;20221;-78
2022/05/11 05:38:56;;;;;;;6.50;5.90;;;;;;;17.82;100.00;99606.00;4821239;29;20540;-76
2022/05/11 05:41:25;;;;;;;7.07;5.70;;;;;;;17.98;100.00;99602.22;4804723;29;20293;-76
2022/05/11 05:43:52;;;;;;;8.70;6.13;;;;;;;18.12;100.00;99610.66;4805062;29;20276;-76
2022/05/11 05:46:19;;;;;;;5.60;5.13;;;;;;;18.29;100.00;99602.28;4804458;29;20222;-77
2022/05/11 05:48:46;;;;;;;6.23;5.70;;;;;;;18.35;100.00;99604.72;4821673;29;20246;-77
2022/05/11 05:51:15;;;;;;;6.07;5.47;;;;;;;18.52;100.00;99604.47;4820985;29;20263;-83
2022/05/11 05:53:42;;;;;;;5.97;5.47;;;;;;;18.68;100.00;99602.56;4804775;29;20669;-78
2022/05/11 05:56:10;;;;;;;7.00;5.07;;;;;;;18.85;100.00;99603.06;4820894;29;20224;-77
2022/05/11 05:58:37;;;;;;;6.17;5.50;;;;;;;19.00;100.00;99605.75;4821048;29;20399;-77
2022/05/11 06:01:05;;;;;;;5.50;5.00;;;;;;;19.17;100.00;99600.03;4820900;29;20270;-79
2022/05/11 06:03:35;;;;;;;7.23;5.10;;;;;;;19.35;100.00;99597.53;4820093;29;20254;-78
2022/05/11 06:06:05;;;;;;;6.07;4.73;;;;;;;19.52;100.00;99601.81;4820863;29;20202;-78
2022/05/11 06:08:32;;;;;;;5.47;4.77;;;;;;;19.62;100.00;99597.16;4804416;29;20240;-78
2022/05/11 06:10:58;;;;;;;6.20;4.77;;;;;;;19.76;100.00;99605.50;4820849;29;20674;-78
2022/05/11 06:13:26;;;;;;;6.20;5.07;;;;;;;19.98;100.00;99610.53;4820961;29;20266;-78
2022/05/11 06:15:55;;;;;;;6.57;4.60;;;;;;;20.09;100.00;99612.09;4820946;29;20203;-78
2022/05/11 06:18:24;;;;;;;7.17;4.63;;;;;;;20.22;100.00;99619.63;4820306;29;20292;-78
2022/05/11 06:20:52;;;;;;;5.20;4.80;;;;;;;20.37;100.00;99608.66;4804726;29;20191;-79
2022/05/11 06:23:22;;;;;;;6.17;5.00;;;;;;;20.58;100.00;99606.56;4820952;29;20268;-78
2022/05/11 06:25:49;;;;;;;5.40;4.90;;;;;;;20.79;100.00;99609.94;4820869;29;20187;-78
2022/05/11 06:28:18;;;;;;;5.60;5.10;;;;;;;20.87;100.00;99601.13;4804200;29;20228;-79
2022/05/11 06:31:05;;;;;;;5.37;4.70;;;;;;;21.10;100.00;99612.06;4807016;29;20758;-78
2022/05/11 06:33:34;;;;;;;5.20;4.70;;;;;;;21.25;100.00;99605.66;4820820;29;20188;-78
2022/05/11 06:36:05;;;;;;;5.67;5.00;;;;;;;21.37;99.60;99602.53;4820604;29;20571;-78
2022/05/11 06:38:33;;;;;;;6.07;4.80;;;;;;;21.51;99.55;99604.25;4820174;29;20192;-78
2022/05/11 06:41:23;;;;;;;6.40;4.40;;;;;;;21.59;99.82;99610.16;4820318;29;20247;-78
2022/05/11 06:43:51;;;;;;;5.70;4.90;;;;;;;21.75;98.06;99601.47;4821036;29;20191;-79
2022/05/11 06:46:18;;;;;;;5.50;4.80;;;;;;;21.92;98.85;99612.72;4823441;29;20597;-78
2022/05/11 06:48:45;;;;;;;5.40;5.00;;;;;;;22.01;97.53;99602.00;4824099;29;20193;-79
2022/05/11 06:51:13;;;;;;;5.43;4.60;;;;;;;22.15;93.25;99604.78;4823953;29;20811;-81
2022/05/11 06:59:20;;;;;;;7.03;5.60;;;;;;;22.70;90.73;99605.81;4823578;29;20193;-79
2022/05/11 07:01:55;;;;;;;5.50;4.93;;;;;;;22.83;87.72;99615.97;4823232;29;20183;-79
2022/05/11 07:04:22;;;;;;;5.50;5.00;;;;;;;22.96;84.55;99608.88;4807319;29;20181;-79
2022/05/11 07:06:53;;;;;;;4.90;4.50;;;;;;;23.13;82.78;99606.41;4823561;29;20622;-78
2022/05/11 07:09:22;;;;;;;4.87;4.40;;;;;;;23.24;79.15;99613.28;4823527;29;20235;-80
2022/05/11 07:14:35;;;;;;;5.20;4.70;;;;;;;23.44;78.09;99607.44;4823353;29;20272;-78
2022/05/11 07:17:02;;;;;;;4.97;4.47;;;;;;;23.61;79.50;99604.06;4822861;29;20289;-78
2022/05/11 07:19:29;;;;;;;4.82;4.40;;;;;;;23.80;79.66;99602.00;4807588;29;20251;-78
2022/05/11 07:21:56;;;;;;;5.15;4.72;;;;;;;23.83;73.34;99601.41;4823312;29;20199;-78
2022/05/11 07:24:23;;;;;;;5.03;4.30;;;;;;;23.82;66.67;99601.72;4792363;29;20712;-78
2022/05/11 07:26:51;;;;;;;6.85;4.07;;;;;;;24.04;63.92;99596.28;4792215;29;20262;-78
2022/05/11 07:29:17;;;;;;;7.85;4.70;;;;;;;24.24;64.89;99595.84;4807033;29;20198;-78
2022/05/11 07:31:46;;;;;;;6.75;4.43;;;;;;;24.31;69.95;99593.47;4823113;29;20252;-78
2022/05/11 07:34:13;;;;;;;10.05;4.63;;;;;;;24.44;70.26;99594.53;4823391;29;20204;-78
2022/05/11 07:36:40;;;;;;;7.50;4.70;;;;;;;24.51;64.66;99587.50;4806954;29;20738;-78
2022/05/11 07:39:08;;;;;;;7.43;4.60;;;;;;;24.56;65.52;99592.84;4822785;29;20190;-78
2022/05/11 07:41:35;;;;;;;5.50;4.95;;;;;;;24.63;65.79;99589.69;4807382;29;20273;-79
2022/05/11 07:44:02;;;;;;;7.20;4.28;;;;;;;24.79;65.70;99587.34;4822989;29;20246;-78
2022/05/11 07:46:34;;;;;;;9.43;5.05;;;;;;;24.96;67.81;99582.78;4822421;29;20247;-78
2022/05/11 07:49:05;;;;;;;6.55;4.75;;;;;;;25.06;67.39;99589.91;4807603;29;20183;-78
2022/05/11 07:51:33;;;;;;;7.22;4.43;;;;;;;25.15;66.64;99588.00;4822077;29;20703;-78
2022/05/11 07:53:59;;;;;;;6.57;4.35;;;;;;;25.15;64.21;99585.28;4823280;29;20235;-78
2022/05/11 08:01:58;;;;;;;6.28;4.68;;;;;;;25.39;57.85;99574.72;4822011;29;20274;-78
2022/05/11 08:04:25;;;;;;;6.13;4.15;;;;;;;25.52;56.08;99580.41;4822563;29;20200;-78
2022/05/11 08:06:52;;;;;;;6.20;4.43;;;;;;;25.62;54.14;99583.66;4822695;29;20250;-78
2022/05/11 08:09:19;;;;;;;5.32;4.80;;;;;;;25.78;56.39;99573.88;4822376;29;20200;-78
2022/05/11 08:11:47;;;;;;;6.18;4.25;;;;;;;25.83;55.05;99579.19;4822352;29;20303;-78
2022/05/11 08:14:14;;;;;;;6.55;4.30;;;;;;;25.92;53.62;99575.66;4822346;29;20198;-81
2022/05/11 08:16:42;;;;;;;6.53;4.05;;;;;;;25.95;50.41;99572.25;4822481;29;20212;-78
2022/05/11 08:19:09;;;;;;;5.18;4.10;;;;;;;26.04;52.40;99573.06;4822301;29;20217;-78
2022/05/11 08:21:36;;;;;;;5.43;3.17;;;;;;;26.03;50.31;99580.50;4806139;29;20234;-79
2022/05/11 08:24:03;;;;;;;3.53;3.28;;;;;;;26.09;43.91;99570.16;4822202;29;20829;-78
2022/05/11 08:26:30;;;;;;;3.20;2.90;;;;;;;26.23;42.13;99574.38;4806224;29;21049;-78
2022/05/11 08:28:57;;;;;;;4.55;3.30;;;;;;;26.33;41.35;99573.25;4822187;29;20277;-78
2022/05/11 08:34:09;;;;;;;3.17;2.97;;;;;;;26.43;39.46;99575.66;4822436;29;20216;-78
2022/05/11 08:36:37;;;;;;;3.65;3.17;;;;;;;26.46;40.97;99575.00;4822348;29;20200;-79
2022/05/11 08:39:04;;;;;;;3.28;3.08;;;;;;;26.55;38.81;99572.25;4821910;29;20204;-78
2022/05/11 08:41:57;;;;;;;3.60;3.30;;;;;;;26.57;39.16;99569.97;4822021;29;20229;-78
2022/05/11 08:44:32;;;;;;;3.30;3.08;;;;;;;26.55;38.90;99575.78;4819313;29;20314;-78
2022/05/11 08:47:30;;;;;;;3.83;2.97;;;;;;;26.70;37.57;99571.72;4806096;29;20213;-78
2022/05/11 08:50:18;;;;;;;3.20;3.00;;;;;;;26.67;36.19;99573.19;4805870;29;20210;-77
2022/05/11 08:52:50;;;;;;;3.00;2.80;;;;;;;26.68;37.92;99569.31;4821768;29;20182;-77
2022/05/11 08:56:02;;;;;;;3.25;2.97;;;;;;;26.66;37.47;99566.06;4821518;29;20190;-78
2022/05/11 08:58:56;;;;;;;3.20;2.97;;;;;;;26.67;38.82;99562.19;4819408;29;20206;-78
2022/05/11 09:01:31;;;;;;;3.25;2.95;;;;;;;26.60;39.23;99561.88;4818325;29;20210;-77
2022/05/11 09:03:59;;;;;;;4.40;3.15;;;;;;;26.66;37.77;99563.31;4805329;29;20650;-77
2022/05/11 09:06:28;;;;;;;4.03;3.03;;;;;;;26.80;38.70;99560.38;4821652;29;20186;-77
2022/05/11 09:08:57;;;;;;;3.15;2.85;;;;;;;26.89;35.60;99561.19;4821300;29;20194;-77
2022/05/11 09:11:29;;;;;;;4.40;2.95;;;;;;;26.93;36.25;99556.63;4821131;29;20214;-77
2022/05/11 09:13:58;;;;;;;3.03;2.63;;;;;;;27.05;34.31;99561.44;4821314;29;20243;-77
2022/05/11 09:16:28;;;;;;;2.90;2.70;;;;;;;26.99;33.97;99547.06;4821063;29;20235;-78
2022/05/11 09:18:56;;;;;;;3.13;2.85;;;;;;;27.08;34.61;99556.09;4804859;29;20183;-78
2022/05/11 09:21:31;;;;;;;3.28;3.08;;;;;;;27.20;34.90;99560.91;4821245;29;20202;-76
2022/05/11 09:24:10;;;;;;;3.28;3.00;;;;;;;27.28;33.36;99551.78;4804962;29;20228;-78
2022/05/11 09:26:40;;;;;;;4.43;2.95;;;;;;;27.29;33.75;99547.91;4820941;29;20182;-77
2022/05/11 09:29:16;;;;;;;4.22;2.92;;;;;;;27.31;33.64;99550.31;4821194;29;20217;-77
2022/05/11 09:31:45;;;;;;;3.53;2.90;;;;;;;27.42;34.63;99544.09;4821162;29;20205;-77
2022/05/11 09:34:23;;;;;;;3.33;3.03;;;;;;;27.48;33.29;99548.28;4821385;29;20280;-77
2022/05/11 09:37:22;;;;;;;3.10;2.90;;;;;;;27.62;33.61;99550.81;4805465;29;20184;-77
2022/05/11 09:40:04;;;;;;;3.53;2.90;;;;;;;27.66;33.17;99553.69;4792490;29;20210;-78
2022/05/11 09:42:32;;;;;;;3.55;2.88;;;;;;;27.70;32.67;99546.38;4804535;29;20186;-78
2022/05/11 09:45:00;;;;;;;3.13;2.92;;;;;;;27.83;32.80;99542.56;4821104;29;20198;-77
2022/05/11 09:47:33;;;;;;;3.45;3.08;;;;;;;27.78;31.77;99540.00;4804273;29;20690;-77
2022/05/11 09:50:20;;;;;;;3.45;3.15;;;;;;;27.91;32.10;99536.97;4820860;29;20216;-77
2022/05/11 09:52:48;;;;;;;2.95;2.63;;;;;;;28.03;30.49;99541.75;4804857;29;20212;-80
2022/05/11 09:55:33;;;;;;;3.55;3.25;;;;;;;28.12;31.20;99542.50;4804745;29;20193;-79
2022/05/11 09:58:06;;;;;;;3.70;2.90;;;;;;;28.18;30.40;99537.59;4820696;29;20209;-78
2022/05/11 10:00:38;;;;;;;3.20;2.90;;;;;;;28.12;32.08;99534.25;4820508;29;20905;-79
2022/05/11 10:03:11;;;;;;;5.10;3.08;;;;;;;28.21;31.28;99529.47;4820351;29;20569;-78
2022/05/11 10:05:44;;;;;;;3.63;3.05;;;;;;;28.21;31.88;99531.41;4804535;29;20716;-78
2022/05/11 10:08:31;;;;;;;4.35;3.08;;;;;;;28.30;31.01;99527.44;4804543;29;20213;-78
2022/05/11 10:11:21;;;;;;;3.10;2.90;;;;;;;28.42;31.63;99521.13;4804733;29;20251;-77
2022/05/11 10:23:02;;;;;;;5.10;3.50;;;;;;;28.74;30.03;99512.03;4806547;29;20299;-78
2022/05/11 10:25:42;;;;;;;4.13;3.45;;;;;;;28.88;30.76;99511.75;4808446;29;20214;-77
2022/05/11 10:28:33;;;;;;;3.83;3.45;;;;;;;28.83;31.64;99518.28;4776876;29;20233;-76
2022/05/11 10:31:26;;;;;;;5.30;3.17;;;;;;;28.75;30.55;99518.34;4808362;29;20175;-77
2022/05/11 10:34:08;;;;;;;3.40;3.00;;;;;;;28.91;30.81;99518.50;4800643;29;20666;-77
2022/05/11 10:36:47;;;;;;;6.43;3.13;;;;;;;29.02;29.39;99508.63;4807937;29;20667;-78
2022/05/11 10:39:18;;;;;;;3.60;3.30;;;;;;;28.98;29.08;99508.50;4792100;29;20609;-77
2022/05/11 10:41:54;;;;;;;3.45;3.25;;;;;;;29.13;28.17;99496.78;4808512;29;20206;-77
2022/05/11 10:44:43;;;;;;;3.67;3.35;;;;;;;29.19;29.76;99497.34;4807857;29;20242;-78
2022/05/11 10:47:32;;;;;;;3.80;3.38;;;;;;;29.40;30.55;99498.03;4785462;29;20214;-79
2022/05/11 10:50:20;;;;;;;3.55;3.33;;;;;;;29.47;29.50;99501.03;4808196;29;20225;-77
2022/05/11 10:53:05;;;;;;;3.80;3.50;;;;;;;29.44;29.08;99487.13;4807549;29;20209;-77
2022/05/11 10:56:03;;;;;;;3.60;3.35;;;;;;;29.44;27.33;99484.38;4807848;29;20186;-77
2022/05/11 10:58:51;;;;;;;3.72;3.45;;;;;;;29.41;27.93;99476.78;4807507;29;20179;-77
2022/05/11 11:01:18;;;;;;;3.58;3.28;;;;;;;29.55;28.47;99471.69;4807365;29;20239;-77
2022/05/11 11:03:48;;;;;;;4.53;3.00;;;;;;;29.56;28.16;99479.63;4807446;29;20197;-77
2022/05/11 11:09:47;;;;;;;3.60;3.30;;;;;;;29.77;28.57;99471.16;4807620;29;20229;-77
2022/05/11 11:12:35;;;;;;;3.95;3.50;;;;;;;29.86;28.34;99466.31;4792192;29;20194;-77
2022/05/11 11:15:07;;;;;;;4.25;3.45;;;;;;;29.84;28.55;99474.13;4800580;29;20213;-78
2022/05/11 11:17:33;;;;;;;3.60;3.40;;;;;;;29.94;28.52;99465.38;4791066;29;20215;-77
2022/05/11 11:20:06;;;;;;;4.95;4.00;;;;;;;30.07;28.11;99463.34;4807760;29;20200;-78
2022/05/11 11:23:08;;;;;;;3.65;3.45;;;;;;;30.14;27.03;99463.56;4796471;29;20250;-77
2022/05/11 11:25:47;;;;;;;4.68;3.80;;;;;;;30.26;28.20;99463.47;4821070;29;20214;-77
2022/05/11 11:28:15;;;;;;;3.97;3.67;;;;;;;30.28;27.33;99460.38;4825404;29;20669;-79
2022/05/11 11:31:04;;;;;;;3.72;3.45;;;;;;;30.36;26.18;99460.19;4823742;29;20190;-78
2022/05/11 11:33:41;;;;;;;3.92;3.25;;;;;;;30.48;25.59;99451.03;4816579;29;20249;-78
2022/05/11 11:36:31;;;;;;;3.75;3.33;;;;;;;30.57;25.79;99443.38;4807652;29;20193;-78
2022/05/11 11:39:00;;;;;;;3.85;3.58;;;;;;;30.76;25.09;99442.66;4823198;29;20560;-77
2022/05/11 11:41:42;;;;;;;4.00;3.58;;;;;;;30.87;25.05;99438.19;4806928;29;20247;-78
2022/05/11 11:44:20;;;;;;;6.47;3.65;;;;;;;30.78;27.50;99432.06;4822921;29;20182;-77
2022/05/11 11:46:49;;;;;;;3.85;3.50;;;;;;;30.79;25.16;99426.16;4823113;29;20221;-78
2022/05/11 11:49:18;;;;;;;3.50;3.20;;;;;;;30.93;25.70;99434.00;4822871;29;20206;-77
2022/05/11 11:51:57;;;;;;;4.70;3.00;;;;;;;31.07;25.06;99428.81;4822950;29;20209;-78
2022/05/11 11:54:27;;;;;;;4.20;3.10;;;;;;;31.16;25.70;99431.38;4806655;29;20178;-78
2022/05/11 11:56:55;;;;;;;3.78;3.47;;;;;;;31.32;25.50;99424.63;4822578;29;20650;-78
2022/05/11 11:59:25;;;;;;;3.45;3.25;;;;;;;31.37;25.27;99415.25;4822516;29;20692;-78
2022/05/11 12:02:09;;;;;;;4.03;3.63;;;;;;;31.41;26.52;99422.44;4822277;29;20190;-77
2022/05/11 12:04:40;;;;;;;4.82;3.40;;;;;;;31.46;24.70;99411.09;4822479;29;20483;-77
2022/05/11 12:16:25;;;;;;;3.65;3.05;;;;;;;31.90;24.37;99408.06;4808794;29;20274;-77
2022/05/11 12:18:52;;;;;;;4.10;3.60;;;;;;;31.98;22.82;99401.47;4806120;29;20239;-77
2022/05/11 12:21:57;;;;;;;6.30;3.45;;;;;;;32.00;22.95;99395.56;4822323;29;20298;-77
2022/05/11 12:24:31;;;;;;;5.82;3.70;;;;;;;32.09;23.24;99396.94;4822469;29;20254;-78
2022/05/11 12:27:01;;;;;;;3.60;3.30;;;;;;;32.16;23.63;99399.84;4822532;29;20224;-78
2022/05/11 12:32:24;;;;;;;3.58;3.30;;;;;;;32.47;23.02;99384.97;4808658;29;20237;-78
2022/05/11 12:34:52;;;;;;;4.22;2.80;;;;;;;32.46;23.17;99380.56;4806464;29;20281;-78
2022/05/11 12:37:31;;;;;;;2.70;2.58;;;;;;;32.51;24.05;99380.25;4805977;29;20194;-78
2022/05/11 12:40:09;;;;;;;3.88;3.05;;;;;;;32.54;23.24;99381.47;4805551;29;20186;-78